Impacts TAF Board
For situational awareness. Not to be used for flight planning purposes.
IDs:

KHOU - Houston/Hobby Arpt, TX, US

Issued at 2047 UTC 21 May 2022
Updated at 2142 UTC 21 May 2022
Potential Impact None Slight Moderate High
Time2053Z 21/22Z 21/23Z 22/00Z 22/01Z 22/02Z 22/03Z 22/04Z 22/05Z 22/06Z 22/07Z 22/08Z 22/09Z 22/10Z>>
Type OBS PRVL PRVL PRVL PRVL PRVL PRVL PRVL PRVL PRVL PRVL PRVL PRVL
  [TEMP]  
PRVL
  [TEMP]  
VIS 10 >6 >6 >6 >6 >6 >6 >6 >6 >6 >6 >6 >6
  [3]  
>6
  [3]  
CIG 37 35 35 35 35 35 25 25 25 25 20 20 20
  [20]  
20
  [20]  
Cover BKN BKN BKN BKN BKN BKN BKN BKN BKN BKN BKN BKN BKN
  [BKN]  
BKN
  [BKN]  
FltCat VFR VFR VFR VFR VFR VFR MVFR MVFR MVFR MVFR MVFR MVFR MVFR
  [MVFR]  
MVFR
  [MVFR]  
WX -- -- -- -- -- -- -- -- -- -- -RA VCTS -RA VCTS -RA VCTS
  [TSRA]  
-RA VCTS
  [TSRA]  
WDir 160 160 160 160 160 160 140 140 140 140 140 140 140
[VRB]
140
[VRB]
WSpd 15 16 16 16 16 16 10 10 10 10 10 10 10
  [25]  
10
  [25]  
WGst -- -- -- -- -- -- -- -- -- -- -- -- --
  [--]  
--
  [--]  
WSHgt -- -- -- -- -- -- -- -- -- -- -- -- --
[--]
--
[--]
WSDir -- -- -- -- -- -- -- -- -- -- -- -- --
[--]
--
[--]
WSSpd -- -- -- -- -- -- -- -- -- -- -- -- --
[--]
--
[--]
Raw TAF
KHOU 212047Z 2121/2218 16016KT P6SM BKN035
  FM220300 14010KT P6SM BKN025 BKN150
  FM220700 14010KT P6SM -RA VCTS BKN020CB
  TEMPO 2209/2213 VRB25KT 3SM TSRA
  FM221300 02012KT P6SM VCSH SCT008 BKN015
  FM221700 02010KT P6SM VCSH BKN025


Raw METAR
KHOU 212053Z 16015KT 10SM BKN037 33/24 A2986 RMK AO2 SLP115 T03280239 58010
KHOU 211953Z 16014G21KT 10SM BKN034 33/24 A2988 RMK AO2 SLP122 T03330239 $
KHOU 211853Z 17012KT 10SM FEW030 SCT039 33/24 A2989 RMK AO2 SLP124 T03330239 $

METAR Board
Radar Display
Forecast Discussion
For situational awareness. Not to be used for flight planning purposes.